Pays
Station

 

Conditions  météo  pour  Deming, Deming Municipal Airport  -  Etats-Unis    Etats-Unis

  
33 °C
    
 
 

METAR pour Deming, Deming Municipal Airport :

KDMN 172353Z AUTO 13012G16KT 10SM CLR 33/12 A3012 RMK AO2 SLP117 T03280117 10328 20289 56017

 

Voici le bulletin pour Deming, Deming Municipal Airport - Etats-Unis.
 
Le bulletin a été fait il y a 47 minutes, à 23:53 UTC .
Le vent soufflait à la vitesse de 6.2 mètres par seconde avec des rafales jusqu'à 8.2 mètres par seconde de Sud-est (130°).
 
La température était de 33 °C, avec un point de rosée à 12 °C.
La température ressentie était de 32 °C.
 
La pression atmosphérique était de 1020 hPa.
L'humidité relative était de 27.9%.
 
Le ciel était clair.
 
La visibilité globale était de 16.1 kilomètres.
 

 
 
 

Pays :   A   B   C   D   E   F   G   H   I   J   K   L   M   N   O   P   Q   R   S   T   U   V   W   Y   Z

 

Partenaires :  Info Météo avec Met'info
Météo Marine avec MeteoMarine.net
Infos Site  |  Infos Légales  |  Crédits  |  Confidentialité
Contactez-nous  |  Ajouter aux favoris
© 2013-2018 METAR - Tous droits réservés